Fort Chipewyan, Canada
Current Conditions -  °F | °C
As of 2:00 PM on Friday 19 Dec 2014 (Local Time) from CYPY Reporting Station
Clear Clear  
Wind Chill: -17°   Ceiling: Unl
Heat Index: -11°   Visibility: 9mi
Dew Point: -11°   Wind: 7mph
Humidity: 100%   Direction: 80°E
Pressure: 29.79"   Gusts: NA
Location:  58.71°N, 111.15°W
Report Text: CYPY 192100Z AUTO 08006KT 040V130 9SM CLR M11/M11 A2979 RMK SLP111
Loading
Personal Weather Stations






























Interactive Weather Map New forecast layout! Learn more

10-Day Weather Forecast

Advertisements
Track Severe Weather on mobile